createdAt,value
2018-05-19T00:00:01.902Z,790.96
2018-05-19T00:00:06.163Z,790.97
2018-05-19T00:00:10.269Z,790.98
2018-05-19T00:00:14.589Z,790.96
2018-05-19T00:00:18.704Z,790.96
2018-05-19T00:00:22.805Z,790.94
2018-05-19T00:00:26.953Z,790.95
2018-05-19T00:00:31.181Z,790.95
2018-05-19T00:00:35.397Z,790.94
2018-05-19T00:00:39.397Z,790.95
2018-05-19T00:00:43.599Z,790.93
2018-05-19T00:00:47.817Z,790.96
2018-05-19T00:00:52.030Z,790.94
2018-05-19T00:00:56.349Z,790.93
2018-05-19T00:01:00.453Z,790.93
2018-05-19T00:01:04.558Z,790.93
2018-05-19T00:01:08.562Z,790.92
2018-05-19T00:01:12.675Z,790.91
2018-05-19T00:01:16.890Z,790.89
2018-05-19T00:01:21.210Z,790.9
2018-05-19T00:01:25.418Z,790.88
2018-05-19T00:01:29.623Z,790.88
2018-05-19T00:01:33.614Z,790.92
2018-05-19T00:01:37.934Z,790.89
2018-05-19T00:01:42.040Z,790.9
2018-05-19T00:01:46.356Z,790.89
2018-05-19T00:01:50.682Z,790.85
2018-05-19T00:01:54.896Z,790.85
2018-05-19T00:01:59.232Z,790.85
2018-05-19T00:02:03.453Z,790.85
2018-05-19T00:02:07.342Z,790.84
2018-05-19T00:02:11.448Z,790.86
2018-05-19T00:02:15.667Z,790.82
2018-05-19T00:02:19.989Z,790.81
2018-05-19T00:02:24.096Z,790.84
2018-05-19T00:02:28.307Z,790.83
2018-05-19T00:02:32.602Z,790.81
2018-05-19T00:02:36.704Z,790.83
2018-05-19T00:02:40.805Z,790.86
2018-05-19T00:02:45.015Z,790.8
2018-05-19T00:02:49.229Z,790.81
2018-05-19T00:02:53.548Z,790.83
2018-05-19T00:02:57.649Z,790.84
2018-05-19T00:03:01.868Z,790.85
2018-05-19T00:03:05.864Z,790.81
2018-05-19T00:03:09.968Z,790.81
2018-05-19T00:03:14.285Z,790.81
2018-05-19T00:03:18.811Z,790.83
2018-05-19T00:03:22.970Z,790.83
2018-05-19T00:03:27.288Z,790.84
2018-05-19T00:03:31.393Z,790.81
2018-05-19T00:03:35.602Z,790.78
2018-05-19T00:03:39.810Z,790.76
2018-05-19T00:03:44.129Z,790.76
2018-05-19T00:03:48.346Z,790.76
2018-05-19T00:03:52.666Z,790.77
2018-05-19T00:03:56.876Z,790.77
2018-05-19T00:04:00.977Z,790.77
2018-05-19T00:04:05.296Z,790.76
2018-05-19T00:04:09.396Z,790.74
2018-05-19T00:04:13.725Z,790.71
2018-05-19T00:04:17.941Z,790.72
2018-05-19T00:04:22.147Z,790.67
2018-05-19T00:04:26.249Z,790.69
2018-05-19T00:04:30.363Z,790.65
2018-05-19T00:04:34.678Z,790.68
2018-05-19T00:04:38.991Z,790.66
2018-05-19T00:04:43.093Z,790.66
2018-05-19T00:04:47.193Z,790.66
2018-05-19T00:04:51.314Z,790.67
2018-05-19T00:04:55.637Z,790.7
2018-05-19T00:04:59.845Z,790.66
2018-05-19T00:05:03.941Z,790.67
2018-05-19T00:05:08.267Z,790.63
2018-05-19T00:05:12.585Z,790.67
2018-05-19T00:05:16.701Z,790.67
2018-05-19T00:05:21.020Z,790.61
2018-05-19T00:05:25.238Z,790.63
2018-05-19T00:05:29.444Z,790.61
2018-05-19T00:05:33.650Z,790.63
2018-05-19T00:05:37.754Z,790.61
2018-05-19T00:05:41.965Z,790.6
2018-05-19T00:05:46.180Z,790.61
2018-05-19T00:05:50.392Z,790.59
2018-05-19T00:05:54.604Z,790.58
2018-05-19T00:05:58.995Z,790.62
2018-05-19T00:06:02.994Z,790.61
2018-05-19T00:06:07.101Z,790.57
2018-05-19T00:06:11.213Z,790.59
2018-05-19T00:06:15.319Z,790.59
2018-05-19T00:06:19.540Z,790.57
2018-05-19T00:06:23.857Z,790.55
2018-05-19T00:06:28.186Z,790.53
2018-05-19T00:06:32.295Z,790.56
2018-05-19T00:06:36.617Z,790.54
2018-05-19T00:06:40.718Z,790.52
2018-05-19T00:06:45.038Z,790.52
2018-05-19T00:06:49.245Z,790.52
2018-05-19T00:06:53.563Z,790.52
2018-05-19T00:06:57.777Z,790.52
2018-05-19T00:07:02.092Z,790.53
2018-05-19T00:07:06.195Z,790.48
2018-05-19T00:07:10.305Z,790.54
2018-05-19T00:07:14.658Z,790.47
2018-05-19T00:07:18.982Z,790.48
2018-05-19T00:07:23.190Z,790.51
2018-05-19T00:07:27.410Z,790.51
2018-05-19T00:07:31.623Z,790.5
2018-05-19T00:07:35.944Z,790.52
2018-05-19T00:07:39.937Z,790.47
2018-05-19T00:07:44.048Z,790.51
2018-05-19T00:07:48.368Z,790.49
2018-05-19T00:07:52.576Z,790.48
2018-05-19T00:07:56.792Z,790.48
2018-05-19T00:08:01.113Z,790.46
2018-05-19T00:08:05.324Z,790.49
2018-05-19T00:08:09.317Z,790.5
2018-05-19T00:08:13.531Z,790.42
2018-05-19T00:08:17.854Z,790.48
2018-05-19T00:08:21.974Z,790.5
2018-05-19T00:08:25.972Z,790.48
2018-05-19T00:08:30.257Z,790.49
2018-05-19T00:08:34.587Z,790.48
2018-05-19T00:08:38.592Z,790.42
2018-05-19T00:08:42.692Z,790.49
2018-05-19T00:08:46.899Z,790.46
2018-05-19T00:08:51.213Z,790.47
2018-05-19T00:08:55.422Z,790.48
2018-05-19T00:08:59.641Z,790.46
2018-05-19T00:09:03.966Z,790.47
2018-05-19T00:09:08.179Z,790.48
2018-05-19T00:09:12.386Z,790.51
2018-05-19T00:09:16.493Z,790.45
2018-05-19T00:09:20.711Z,790.5
2018-05-19T00:09:24.923Z,790.45
2018-05-19T00:09:28.944Z,790.44
2018-05-19T00:09:33.260Z,790.44
2018-05-19T00:09:37.368Z,790.42
2018-05-19T00:09:41.694Z,790.42
2018-05-19T00:09:45.902Z,790.39
2018-05-19T00:09:50.115Z,790.43
2018-05-19T00:09:54.219Z,790.4
2018-05-19T00:09:58.428Z,790.44
2018-05-19T00:10:02.531Z,790.45
2018-05-19T00:10:06.747Z,790.42
2018-05-19T00:10:11.075Z,790.42
2018-05-19T00:10:15.292Z,790.47
2018-05-19T00:10:19.605Z,790.41
2018-05-19T00:10:23.737Z,790.42
2018-05-19T00:10:27.844Z,790.41
2018-05-19T00:10:31.954Z,790.39
2018-05-19T00:10:36.058Z,790.42
2018-05-19T00:10:40.270Z,790.4
2018-05-19T00:10:44.368Z,790.4
2018-05-19T00:10:48.693Z,790.39
2018-05-19T00:10:52.814Z,790.41
2018-05-19T00:10:56.918Z,790.39
2018-05-19T00:11:01.236Z,790.4
2018-05-19T00:11:05.122Z,790.39
2018-05-19T00:11:09.113Z,790.37
2018-05-19T00:11:13.232Z,790.37
2018-05-19T00:11:17.449Z,790.38
2018-05-19T00:11:21.664Z,790.41
2018-05-19T00:11:25.767Z,790.37
2018-05-19T00:11:29.983Z,790.39
2018-05-19T00:11:34.313Z,790.35
2018-05-19T00:11:38.636Z,790.36
2018-05-19T00:11:42.848Z,790.36
2018-05-19T00:11:47.055Z,790.36
2018-05-19T00:11:51.376Z,790.37
2018-05-19T00:11:55.589Z,790.37
2018-05-19T00:11:59.802Z,790.38
2018-05-19T00:12:03.812Z,790.38
2018-05-19T00:12:08.034Z,790.36
2018-05-19T00:12:12.389Z,790.29
2018-05-19T00:12:16.712Z,790.33
2018-05-19T00:12:21.040Z,790.37
2018-05-19T00:12:25.366Z,790.38
2018-05-19T00:12:29.691Z,790.35
2018-05-19T00:12:33.907Z,790.37
2018-05-19T00:12:38.116Z,790.3
2018-05-19T00:12:42.429Z,790.32
2018-05-19T00:12:46.644Z,790.34
2018-05-19T00:12:50.859Z,790.36
2018-05-19T00:12:55.071Z,790.34
2018-05-19T00:12:59.392Z,790.33
2018-05-19T00:13:03.483Z,790.33
2018-05-19T00:13:07.480Z,790.3
2018-05-19T00:13:11.475Z,790.37
2018-05-19T00:13:15.684Z,790.31
2018-05-19T00:13:19.898Z,790.32
2018-05-19T00:13:24.110Z,790.33
2018-05-19T00:13:28.334Z,790.34
2018-05-19T00:13:32.655Z,790.26
2018-05-19T00:13:36.862Z,790.33
2018-05-19T00:13:41.190Z,790.28
2018-05-19T00:13:45.297Z,790.29
2018-05-19T00:13:49.518Z,790.27
2018-05-19T00:13:53.825Z,790.31
2018-05-19T00:13:57.927Z,790.32
2018-05-19T00:14:02.140Z,790.24
2018-05-19T00:14:06.242Z,790.24
2018-05-19T00:14:10.454Z,790.26
2018-05-19T00:14:14.803Z,790.27
2018-05-19T00:14:19.129Z,790.31
2018-05-19T00:14:23.346Z,790.28
2018-05-19T00:14:27.463Z,790.28
2018-05-19T00:14:31.787Z,790.28
2018-05-19T00:14:36.109Z,790.28
2018-05-19T00:14:40.324Z,790.29
2018-05-19T00:14:44.651Z,790.27
2018-05-19T00:14:48.753Z,790.29
2018-05-19T00:14:52.856Z,790.27
2018-05-19T00:14:57.071Z,790.31
2018-05-19T00:15:01.286Z,790.28
2018-05-19T00:15:05.389Z,790.26
2018-05-19T00:15:09.719Z,790.27
2018-05-19T00:15:14.098Z,790.27
2018-05-19T00:15:18.413Z,790.26
2018-05-19T00:15:22.619Z,790.29
2018-05-19T00:15:26.978Z,790.26
2018-05-19T00:15:31.201Z,790.27
2018-05-19T00:15:35.304Z,790.26
2018-05-19T00:15:39.625Z,790.28
2018-05-19T00:15:43.732Z,790.22
2018-05-19T00:15:47.836Z,790.21
2018-05-19T00:15:51.941Z,790.26
2018-05-19T00:15:56.261Z,790.23
2018-05-19T00:16:00.480Z,790.24
2018-05-19T00:16:04.703Z,790.21
2018-05-19T00:16:08.915Z,790.23
2018-05-19T00:16:13.125Z,790.26
2018-05-19T00:16:17.446Z,790.25
2018-05-19T00:16:21.657Z,790.25
2018-05-19T00:16:25.655Z,790.22
2018-05-19T00:16:29.865Z,790.25
2018-05-19T00:16:34.073Z,790.21
2018-05-19T00:16:38.397Z,790.23
2018-05-19T00:16:42.610Z,790.22
2018-05-19T00:16:46.831Z,790.23
2018-05-19T00:16:51.059Z,790.22
2018-05-19T00:16:55.376Z,790.24
2018-05-19T00:16:59.705Z,790.21
2018-05-19T00:17:03.809Z,790.2
2018-05-19T00:17:07.816Z,790.21
2018-05-19T00:17:12.062Z,790.19
2018-05-19T00:17:16.266Z,790.2
2018-05-19T00:17:20.474Z,790.2
2018-05-19T00:17:24.809Z,790.17
2018-05-19T00:17:29.038Z,790.19
2018-05-19T00:17:33.246Z,790.14
2018-05-19T00:17:37.567Z,790.14
2018-05-19T00:17:41.860Z,790.15
2018-05-19T00:17:46.079Z,790.15
2018-05-19T00:17:50.184Z,790.16
2018-05-19T00:17:54.504Z,790.16
2018-05-19T00:17:58.824Z,790.14
2018-05-19T00:18:02.930Z,790.13
2018-05-19T00:18:07.040Z,790.11
2018-05-19T00:18:11.355Z,790.1
2018-05-19T00:18:15.572Z,790.11
2018-05-19T00:18:19.871Z,790.13
2018-05-19T00:18:24.191Z,790.11
2018-05-19T00:18:28.405Z,790.07
2018-05-19T00:18:32.514Z,790.13
2018-05-19T00:18:36.831Z,790.03
2018-05-19T00:18:41.153Z,790.09
2018-05-19T00:18:45.364Z,790.08
2018-05-19T00:18:49.575Z,790.05
2018-05-19T00:18:53.681Z,790.07
2018-05-19T00:18:57.888Z,790.11
2018-05-19T00:19:01.991Z,790.04
2018-05-19T00:19:06.040Z,790.05
2018-05-19T00:19:10.142Z,790.04
2018-05-19T00:19:14.367Z,790.06
2018-05-19T00:19:18.487Z,790.06
2018-05-19T00:19:22.695Z,789.98
2018-05-19T00:19:26.941Z,789.97
2018-05-19T00:19:31.155Z,790.01
2018-05-19T00:19:35.477Z,790.03
2018-05-19T00:19:39.793Z,790.03
2018-05-19T00:19:43.897Z,789.99
2018-05-19T00:19:47.992Z,790.02
2018-05-19T00:19:52.234Z,790
2018-05-19T00:19:56.446Z,789.98
2018-05-19T00:20:00.659Z,789.97
2018-05-19T00:20:04.721Z,789.97
2018-05-19T00:20:09.043Z,790.01
2018-05-19T00:20:13.147Z,789.98
2018-05-19T00:20:17.249Z,789.97
2018-05-19T00:20:21.252Z,789.93
2018-05-19T00:20:25.353Z,789.95
2018-05-19T00:20:29.564Z,789.94
2018-05-19T00:20:33.881Z,789.92
2018-05-19T00:20:38.096Z,789.94
2018-05-19T00:20:42.500Z,789.94
2018-05-19T00:20:46.608Z,789.89
2018-05-19T00:20:50.710Z,789.9
2018-05-19T00:20:55.029Z,789.89
2018-05-19T00:20:59.235Z,789.86
2018-05-19T00:21:03.346Z,789.86
2018-05-19T00:21:07.625Z,789.87
2018-05-19T00:21:11.741Z,789.88
2018-05-19T00:21:15.849Z,789.86
2018-05-19T00:21:20.057Z,789.85
2018-05-19T00:21:24.383Z,789.81
2018-05-19T00:21:28.602Z,789.8
2018-05-19T00:21:32.817Z,789.83
2018-05-19T00:21:36.813Z,789.83
2018-05-19T00:21:41.127Z,789.83
2018-05-19T00:21:45.447Z,789.83
2018-05-19T00:21:49.655Z,789.8
2018-05-19T00:21:53.763Z,789.74
2018-05-19T00:21:57.975Z,789.81
2018-05-19T00:22:02.193Z,789.77
2018-05-19T00:22:06.410Z,789.8
2018-05-19T00:22:10.755Z,789.79
2018-05-19T00:22:14.969Z,789.79
2018-05-19T00:22:19.187Z,789.76
2018-05-19T00:22:23.514Z,789.75
2018-05-19T00:22:27.722Z,789.74
2018-05-19T00:22:32.043Z,789.75
2018-05-19T00:22:36.252Z,789.78
2018-05-19T00:22:40.459Z,789.71
2018-05-19T00:22:44.673Z,789.74
2018-05-19T00:22:48.883Z,789.74
2018-05-19T00:22:53.102Z,789.75
2018-05-19T00:22:57.310Z,789.71
2018-05-19T00:23:01.418Z,789.74
2018-05-19T00:23:05.520Z,789.73
2018-05-19T00:23:09.528Z,789.71
2018-05-19T00:23:13.857Z,789.69
2018-05-19T00:23:17.848Z,789.66
2018-05-19T00:23:22.054Z,789.67
2018-05-19T00:23:26.262Z,789.67
2018-05-19T00:23:30.519Z,789.66
2018-05-19T00:23:34.728Z,789.64
2018-05-19T00:23:38.935Z,789.67
2018-05-19T00:23:43.250Z,789.65
2018-05-19T00:23:47.251Z,789.66
2018-05-19T00:23:51.577Z,789.64
2018-05-19T00:23:55.908Z,789.63
2018-05-19T00:24:00.115Z,789.63
2018-05-19T00:24:04.221Z,789.61
2018-05-19T00:24:08.437Z,789.62
2018-05-19T00:24:12.657Z,789.6
2018-05-19T00:24:16.980Z,789.63
2018-05-19T00:24:21.187Z,789.58
2018-05-19T00:24:25.400Z,789.6
2018-05-19T00:24:29.392Z,789.6
2018-05-19T00:24:33.603Z,789.59
2018-05-19T00:24:37.930Z,789.59
2018-05-19T00:24:42.032Z,789.58
2018-05-19T00:24:46.352Z,789.57
2018-05-19T00:24:50.566Z,789.51
2018-05-19T00:24:54.872Z,789.61
2018-05-19T00:24:59.205Z,789.58
2018-05-19T00:25:03.484Z,789.54
2018-05-19T00:25:07.597Z,789.57
2018-05-19T00:25:11.803Z,789.58
2018-05-19T00:25:15.903Z,789.58
2018-05-19T00:25:20.308Z,789.57
2018-05-19T00:25:24.408Z,789.52
2018-05-19T00:25:28.619Z,789.54
2018-05-19T00:25:32.945Z,789.54
2018-05-19T00:25:36.947Z,789.54
2018-05-19T00:25:41.337Z,789.55
2018-05-19T00:25:45.441Z,789.54
2018-05-19T00:25:49.545Z,789.57
2018-05-19T00:25:53.755Z,789.5
2018-05-19T00:25:57.965Z,789.52
2018-05-19T00:26:01.957Z,789.5
2018-05-19T00:26:06.265Z,789.5
2018-05-19T00:26:10.376Z,789.55
2018-05-19T00:26:14.703Z,789.58
2018-05-19T00:26:19.022Z,789.59
2018-05-19T00:26:23.229Z,789.59
2018-05-19T00:26:27.549Z,789.56
2018-05-19T00:26:31.771Z,789.58
2018-05-19T00:26:35.982Z,789.58
2018-05-19T00:26:40.297Z,789.56
2018-05-19T00:26:44.514Z,789.58
2018-05-19T00:26:48.625Z,789.61
2018-05-19T00:26:52.734Z,789.53
2018-05-19T00:26:56.949Z,789.6
2018-05-19T00:27:01.052Z,789.6
2018-05-19T00:27:05.164Z,789.59
2018-05-19T00:27:09.378Z,789.6
2018-05-19T00:27:13.585Z,789.6
2018-05-19T00:27:17.793Z,789.58
2018-05-19T00:27:21.891Z,789.62
2018-05-19T00:27:26.245Z,789.62
2018-05-19T00:27:30.566Z,789.59
2018-05-19T00:27:34.891Z,789.63
2018-05-19T00:27:39.229Z,789.6
2018-05-19T00:27:43.443Z,789.62
2018-05-19T00:27:47.769Z,789.62
2018-05-19T00:27:51.992Z,789.63
2018-05-19T00:27:56.311Z,789.64
2018-05-19T00:28:00.308Z,789.64
2018-05-19T00:28:04.411Z,789.66
2018-05-19T00:28:08.622Z,789.62
2018-05-19T00:28:12.945Z,789.6
2018-05-19T00:28:17.161Z,789.67
2018-05-19T00:28:21.272Z,789.69
2018-05-19T00:28:25.385Z,789.64
2018-05-19T00:28:29.595Z,789.69
2018-05-19T00:28:33.822Z,789.7
2018-05-19T00:28:38.148Z,789.69
2018-05-19T00:28:42.472Z,789.7
2018-05-19T00:28:46.465Z,789.69
2018-05-19T00:28:50.456Z,789.67
2018-05-19T00:28:54.770Z,789.68
2018-05-19T00:28:58.766Z,789.7
2018-05-19T00:29:02.983Z,789.67
2018-05-19T00:29:07.300Z,789.72
2018-05-19T00:29:11.622Z,789.7
2018-05-19T00:29:15.831Z,789.67
2018-05-19T00:29:20.039Z,789.73
2018-05-19T00:29:24.356Z,789.72
2018-05-19T00:29:28.459Z,789.73
2018-05-19T00:29:32.673Z,789.77
2018-05-19T00:29:36.771Z,789.74
2018-05-19T00:29:41.094Z,789.75
2018-05-19T00:29:45.421Z,789.74
2018-05-19T00:29:49.737Z,789.77
2018-05-19T00:29:53.844Z,789.78
2018-05-19T00:29:57.948Z,789.76
2018-05-19T00:30:02.048Z,789.74
2018-05-19T00:30:06.325Z,789.78
2018-05-19T00:30:10.534Z,789.78
2018-05-19T00:30:14.742Z,789.81
2018-05-19T00:30:18.957Z,789.79
2018-05-19T00:30:23.170Z,789.79
2018-05-19T00:30:27.378Z,789.79
2018-05-19T00:30:31.694Z,789.82
2018-05-19T00:30:35.911Z,789.81
2018-05-19T00:30:40.227Z,789.84
2018-05-19T00:30:44.546Z,789.84
2018-05-19T00:30:48.648Z,789.84
2018-05-19T00:30:52.769Z,789.86
2018-05-19T00:30:56.973Z,789.88
2018-05-19T00:31:01.075Z,789.86
2018-05-19T00:31:05.129Z,789.92
2018-05-19T00:31:09.255Z,789.87
2018-05-19T00:31:13.584Z,789.92
2018-05-19T00:31:17.805Z,789.9
2018-05-19T00:31:22.015Z,789.91
2018-05-19T00:31:26.330Z,789.96
2018-05-19T00:31:30.645Z,789.92
2018-05-19T00:31:34.852Z,789.93
2018-05-19T00:31:39.068Z,789.95
2018-05-19T00:31:43.400Z,789.92
2018-05-19T00:31:47.725Z,789.96
2018-05-19T00:31:52.046Z,789.96
2018-05-19T00:31:56.370Z,789.97
2018-05-19T00:32:00.605Z,789.98
2018-05-19T00:32:04.383Z,789.97
2018-05-19T00:32:08.380Z,789.98
2018-05-19T00:32:12.483Z,790.03
2018-05-19T00:32:16.801Z,790.03
2018-05-19T00:32:21.008Z,790.04
2018-05-19T00:32:25.109Z,790.04
2018-05-19T00:32:29.317Z,790.01
2018-05-19T00:32:33.526Z,790.04
2018-05-19T00:32:37.633Z,790.02
2018-05-19T00:32:41.851Z,790.09
2018-05-19T00:32:46.066Z,790.06
2018-05-19T00:32:50.384Z,790.08
2018-05-19T00:32:54.599Z,790.07
2018-05-19T00:32:58.811Z,790.08
2018-05-19T00:33:03.022Z,790.06
2018-05-19T00:33:07.139Z,790.1
2018-05-19T00:33:11.465Z,790.09
2018-05-19T00:33:15.458Z,790.08
2018-05-19T00:33:19.671Z,790.07
2018-05-19T00:33:23.880Z,790.1
2018-05-19T00:33:28.128Z,790.08
2018-05-19T00:33:32.345Z,790.1
2018-05-19T00:33:36.553Z,790.14
2018-05-19T00:33:40.773Z,790.09
2018-05-19T00:33:45.089Z,790.15
2018-05-19T00:33:49.188Z,790.14
2018-05-19T00:33:53.397Z,790.15
2018-05-19T00:33:57.710Z,790.13
2018-05-19T00:34:01.912Z,790.15
2018-05-19T00:34:06.122Z,790.15
2018-05-19T00:34:10.328Z,790.13
2018-05-19T00:34:14.537Z,790.15
2018-05-19T00:34:18.851Z,790.18
2018-05-19T00:34:23.061Z,790.17
2018-05-19T00:34:27.175Z,790.19
2018-05-19T00:34:31.384Z,790.17
2018-05-19T00:34:35.759Z,790.13
2018-05-19T00:34:39.974Z,790.17
2018-05-19T00:34:44.079Z,790.19
2018-05-19T00:34:48.399Z,790.18
2018-05-19T00:34:52.644Z,790.21
2018-05-19T00:34:56.858Z,790.24
2018-05-19T00:35:01.062Z,790.16
2018-05-19T00:35:05.289Z,790.22
2018-05-19T00:35:09.608Z,790.24
2018-05-19T00:35:13.951Z,790.21
2018-05-19T00:35:18.273Z,790.23
2018-05-19T00:35:22.589Z,790.25
2018-05-19T00:35:26.581Z,790.28
2018-05-19T00:35:30.788Z,790.25
2018-05-19T00:35:35.111Z,790.25
2018-05-19T00:35:39.318Z,790.2
2018-05-19T00:35:43.637Z,790.2
2018-05-19T00:35:47.742Z,790.23
2018-05-19T00:35:52.059Z,790.26
2018-05-19T00:35:56.383Z,790.27
2018-05-19T00:36:00.487Z,790.21
2018-05-19T00:36:04.483Z,790.25
2018-05-19T00:36:08.819Z,790.28
2018-05-19T00:36:13.034Z,790.25
2018-05-19T00:36:17.250Z,790.26
2018-05-19T00:36:21.465Z,790.27
2018-05-19T00:36:25.786Z,790.27
2018-05-19T00:36:30.101Z,790.25
2018-05-19T00:36:34.422Z,790.26
2018-05-19T00:36:38.628Z,790.22
2018-05-19T00:36:42.835Z,790.22
2018-05-19T00:36:47.052Z,790.26
2018-05-19T00:36:51.364Z,790.26
2018-05-19T00:36:55.577Z,790.25
2018-05-19T00:36:59.788Z,790.28
2018-05-19T00:37:03.937Z,790.26
2018-05-19T00:37:08.153Z,790.27
2018-05-19T00:37:12.368Z,790.25
2018-05-19T00:37:16.700Z,790.22
2018-05-19T00:37:20.917Z,790.24
2018-05-19T00:37:25.126Z,790.24
2018-05-19T00:37:29.447Z,790.23
2018-05-19T00:37:33.661Z,790.23
2018-05-19T00:37:37.759Z,790.22
2018-05-19T00:37:42.081Z,790.21
2018-05-19T00:37:46.301Z,790.24
2018-05-19T00:37:50.701Z,790.21
2018-05-19T00:37:55.027Z,790.25
2018-05-19T00:37:59.355Z,790.17
2018-05-19T00:38:03.780Z,790.19
2018-05-19T00:38:08.006Z,790.18
2018-05-19T00:38:12.222Z,790.26
2018-05-19T00:38:16.440Z,790.24
2018-05-19T00:38:20.561Z,790.23
2018-05-19T00:38:24.765Z,790.22
2018-05-19T00:38:29.090Z,790.16
2018-05-19T00:38:33.299Z,790.18
2018-05-19T00:38:37.399Z,790.16
2018-05-19T00:38:41.608Z,790.14
2018-05-19T00:38:45.607Z,790.15
2018-05-19T00:38:49.931Z,790.19
2018-05-19T00:38:54.141Z,790.22
2018-05-19T00:38:58.302Z,790.19
2018-05-19T00:39:02.460Z,790.17
2018-05-19T00:39:06.563Z,790.16
2018-05-19T00:39:10.556Z,790.15
2018-05-19T00:39:14.782Z,790.13
2018-05-19T00:39:19.122Z,790.13
2018-05-19T00:39:23.474Z,790.13
2018-05-19T00:39:27.575Z,790.12
2018-05-19T00:39:31.900Z,790.11
2018-05-19T00:39:36.002Z,790.09
2018-05-19T00:39:40.225Z,790.1
2018-05-19T00:39:44.325Z,790.11
2018-05-19T00:39:48.530Z,790.1
2018-05-19T00:39:52.864Z,790
2018-05-19T00:39:57.070Z,790.01
2018-05-19T00:40:01.390Z,790.03
2018-05-19T00:40:05.744Z,790.06
2018-05-19T00:40:10.093Z,789.99
2018-05-19T00:40:14.091Z,789.95
2018-05-19T00:40:18.303Z,790.03
2018-05-19T00:40:22.634Z,790
2018-05-19T00:40:26.954Z,790.04
2018-05-19T00:40:31.156Z,789.98
2018-05-19T00:40:35.468Z,790.02
2018-05-19T00:40:39.689Z,789.95
2018-05-19T00:40:44.007Z,789.95
2018-05-19T00:40:48.106Z,789.94
2018-05-19T00:40:52.437Z,789.93
2018-05-19T00:40:56.646Z,789.87
2018-05-19T00:41:00.977Z,789.88
2018-05-19T00:41:05.203Z,789.88
2018-05-19T00:41:09.413Z,789.85
2018-05-19T00:41:13.521Z,789.82
2018-05-19T00:41:17.631Z,789.86
2018-05-19T00:41:21.945Z,789.81
2018-05-19T00:41:26.270Z,789.77
2018-05-19T00:41:30.513Z,789.79
2018-05-19T00:41:34.720Z,789.77
2018-05-19T00:41:38.928Z,789.72
2018-05-19T00:41:43.033Z,789.72
2018-05-19T00:41:47.354Z,789.71
2018-05-19T00:41:51.560Z,789.69
2018-05-19T00:41:55.772Z,789.69
2018-05-19T00:41:59.974Z,789.66
2018-05-19T00:42:04.083Z,789.68
2018-05-19T00:42:08.298Z,789.65
2018-05-19T00:42:12.292Z,789.6
2018-05-19T00:42:16.504Z,789.64
2018-05-19T00:42:20.717Z,789.58
2018-05-19T00:42:24.937Z,789.56
2018-05-19T00:42:29.259Z,789.55
2018-05-19T00:42:33.476Z,789.52
2018-05-19T00:42:37.794Z,789.54
2018-05-19T00:42:42.011Z,789.54
2018-05-19T00:42:46.221Z,789.52
2018-05-19T00:42:50.327Z,789.49
2018-05-19T00:42:54.545Z,789.46
2018-05-19T00:42:58.769Z,789.48
2018-05-19T00:43:03.097Z,789.46
2018-05-19T00:43:07.200Z,789.46
2018-05-19T00:43:11.412Z,789.43
2018-05-19T00:43:15.732Z,789.36
2018-05-19T00:43:20.048Z,789.38
2018-05-19T00:43:24.261Z,789.4
2018-05-19T00:43:28.590Z,789.39
2018-05-19T00:43:32.475Z,789.36
2018-05-19T00:43:36.576Z,789.37
2018-05-19T00:43:40.900Z,789.35
2018-05-19T00:43:44.999Z,789.33
2018-05-19T00:43:49.214Z,789.32
2018-05-19T00:43:53.541Z,789.3
2018-05-19T00:43:57.945Z,789.3
2018-05-19T00:44:02.156Z,789.29
2018-05-19T00:44:06.303Z,789.26
2018-05-19T00:44:10.522Z,789.28
2018-05-19T00:44:14.626Z,789.27
2018-05-19T00:44:18.738Z,789.27
2018-05-19T00:44:22.952Z,789.25
2018-05-19T00:44:27.064Z,789.21
2018-05-19T00:44:31.379Z,789.21
2018-05-19T00:44:35.588Z,789.16
2018-05-19T00:44:39.915Z,789.18
2018-05-19T00:44:44.021Z,789.19
2018-05-19T00:44:48.355Z,789.16
2018-05-19T00:44:52.676Z,789.13
2018-05-19T00:44:56.882Z,789.11
2018-05-19T00:45:01.110Z,789.08
2018-05-19T00:45:05.595Z,789.13
2018-05-19T00:45:09.735Z,789.07
2018-05-19T00:45:13.832Z,789.08
2018-05-19T00:45:18.051Z,789.05
2018-05-19T00:45:22.371Z,789.04
2018-05-19T00:45:26.694Z,789.02
2018-05-19T00:45:31.031Z,789.01
2018-05-19T00:45:35.126Z,788.99
2018-05-19T00:45:39.232Z,788.99
2018-05-19T00:45:43.333Z,788.95
2018-05-19T00:45:47.547Z,788.98
2018-05-19T00:45:51.764Z,788.95
2018-05-19T00:45:55.971Z,788.91
2018-05-19T00:46:00.290Z,788.95
2018-05-19T00:46:04.400Z,788.9
2018-05-19T00:46:08.505Z,788.91
2018-05-19T00:46:12.611Z,788.89
2018-05-19T00:46:16.927Z,788.89
2018-05-19T00:46:21.242Z,788.83
2018-05-19T00:46:25.453Z,788.86
2018-05-19T00:46:29.667Z,788.84
2018-05-19T00:46:33.991Z,788.84
2018-05-19T00:46:38.206Z,788.82
2018-05-19T00:46:42.430Z,788.8
2018-05-19T00:46:46.758Z,788.78
2018-05-19T00:46:50.980Z,788.78
2018-05-19T00:46:55.317Z,788.71
2018-05-19T00:46:59.422Z,788.74
2018-05-19T00:47:03.529Z,788.74
2018-05-19T00:47:07.826Z,788.7
2018-05-19T00:47:12.143Z,788.67
2018-05-19T00:47:16.253Z,788.71
2018-05-19T00:47:20.466Z,788.71
2018-05-19T00:47:24.681Z,788.72
2018-05-19T00:47:29.000Z,788.69
2018-05-19T00:47:33.287Z,788.68
2018-05-19T00:47:37.494Z,788.66
2018-05-19T00:47:41.817Z,788.67
2018-05-19T00:47:46.135Z,788.65
2018-05-19T00:47:50.342Z,788.63
2018-05-19T00:47:54.556Z,788.62
2018-05-19T00:47:58.954Z,788.6
2018-05-19T00:48:03.078Z,788.59
2018-05-19T00:48:07.180Z,788.62
2018-05-19T00:48:11.396Z,788.59
2018-05-19T00:48:15.611Z,788.62
2018-05-19T00:48:19.824Z,788.59
2018-05-19T00:48:24.046Z,788.59
2018-05-19T00:48:28.369Z,788.56
2018-05-19T00:48:32.707Z,788.56
2018-05-19T00:48:36.936Z,788.56
2018-05-19T00:48:41.151Z,788.56
2018-05-19T00:48:45.474Z,788.49
2018-05-19T00:48:49.689Z,788.55
2018-05-19T00:48:54.094Z,788.54
2018-05-19T00:48:58.304Z,788.56
2018-05-19T00:49:02.627Z,788.53
2018-05-19T00:49:06.839Z,788.52
2018-05-19T00:49:10.944Z,788.51
2018-05-19T00:49:15.150Z,788.49
2018-05-19T00:49:19.375Z,788.48
2018-05-19T00:49:23.700Z,788.45
2018-05-19T00:49:27.699Z,788.47
2018-05-19T00:49:32.020Z,788.46
2018-05-19T00:49:36.121Z,788.46
2018-05-19T00:49:40.332Z,788.47
2018-05-19T00:49:44.440Z,788.4
2018-05-19T00:49:48.822Z,788.38
2018-05-19T00:49:53.036Z,788.37
2018-05-19T00:49:57.250Z,788.39
2018-05-19T00:50:01.359Z,788.39
2018-05-19T00:50:05.484Z,788.37
2018-05-19T00:50:09.487Z,788.39
2018-05-19T00:50:13.815Z,788.36
2018-05-19T00:50:18.027Z,788.36
2018-05-19T00:50:22.355Z,788.36
2018-05-19T00:50:26.670Z,788.36
2018-05-19T00:50:30.891Z,788.35
2018-05-19T00:50:35.101Z,788.29
2018-05-19T00:50:39.319Z,788.3
2018-05-19T00:50:43.647Z,788.33
2018-05-19T00:50:47.641Z,788.28
2018-05-19T00:50:51.969Z,788.29
2018-05-19T00:50:56.283Z,788.27
2018-05-19T00:51:00.599Z,788.25
2018-05-19T00:51:04.770Z,788.29
2018-05-19T00:51:08.982Z,788.26
2018-05-19T00:51:13.096Z,788.24
2018-05-19T00:51:17.337Z,788.27
2018-05-19T00:51:21.544Z,788.25
2018-05-19T00:51:25.649Z,788.26
2018-05-19T00:51:29.867Z,788.24
2018-05-19T00:51:33.971Z,788.17
2018-05-19T00:51:38.288Z,788.19
2018-05-19T00:51:42.498Z,788.2
2018-05-19T00:51:46.708Z,788.19
2018-05-19T00:51:50.813Z,788.21
2018-05-19T00:51:55.020Z,788.17
2018-05-19T00:51:59.116Z,788.14
2018-05-19T00:52:03.161Z,788.19
2018-05-19T00:52:07.481Z,788.18
2018-05-19T00:52:11.693Z,788.18
2018-05-19T00:52:15.910Z,788.16
2018-05-19T00:52:20.020Z,788.15
2018-05-19T00:52:24.229Z,788.1
2018-05-19T00:52:28.439Z,788.1
2018-05-19T00:52:32.760Z,788.14
2018-05-19T00:52:37.078Z,788.14
2018-05-19T00:52:41.282Z,788.11